DTTA/TUN METAR and TAF weather

Enter ICAO airport designator
Station Type Date Time Source
DTTA METAR 2019/12/10 03:00 UTC NOAA

DTTA 100300Z 26013KT 9999 SCT026 SCT040 12/08 Q1015


Station Type Date Time Source
DTTA Decoded METAR 2019/12/10 03:00 UTC NOAA

Tunis-Carthage, Tunisia (DTTA) 36-50N 010-14E 4M
Dec 09, 2019 - 10:00 PM EST / 2019.12.10 0300 UTC
Wind: from the W (260 degrees) at 15 MPH (13 KT):0
Visibility: greater than 7 mile(s):0
Sky conditions: partly cloudy
Temperature: 53 F (12 C)
Dew Point: 46 F (8 C)
Relative Humidity: 76%
Pressure (altimeter): 29.97 in. Hg (1015 hPa)
ob: DTTA 100300Z 26013KT 9999 SCT026 SCT040 12/08 Q1015
cycle: 3

Station Type Date Time Source
DTTA TAF 2019/12/10 00:00 UTC NOAA

TAF DTTA 092300Z 1000/1024 25010KT 9999 FEW023 SCT040 PROB40
TEMPO 1000/1003 4000 -TSRA FEW030CB
BECMG 1001/1003 29015G25KT 9999 SCT023 SCT030
BECMG 1007/1009 30020G35KT
TEMPO 1014/1018 4000 RA SCT020TCU
BECMG 1015/1017 32015KT
BECMG 1020/1022 34017G27KT

Example: see airport list